createdAt,value
2023-10-09T00:01:52.993Z,11.00
2023-10-09T00:04:21.442Z,10.00
2023-10-09T00:06:48.125Z,10.43
2023-10-09T00:09:26.426Z,10.77
2023-10-09T00:12:01.189Z,10.37
2023-10-09T00:14:39.773Z,10.57
2023-10-09T00:17:21.909Z,10.47
2023-10-09T00:19:52.700Z,9.90
2023-10-09T00:22:25.843Z,10.10
2023-10-09T00:25:11.086Z,10.40
2023-10-09T00:27:46.189Z,10.40
2023-10-09T00:30:22.680Z,9.97
2023-10-09T00:33:00.687Z,9.10
2023-10-09T00:35:37.730Z,9.30
2023-10-09T00:38:15.675Z,9.87
2023-10-09T00:40:48.082Z,9.90
2023-10-09T00:43:15.239Z,9.73
2023-10-09T00:45:45.096Z,9.60
2023-10-09T00:48:15.236Z,9.73
2023-10-09T00:50:48.797Z,9.83
2023-10-09T00:53:19.413Z,9.80
2023-10-09T00:55:46.990Z,10.07
2023-10-09T00:58:15.140Z,9.10
2023-10-09T01:00:46.080Z,9.50
2023-10-09T01:03:21.056Z,9.57
2023-10-09T01:06:07.141Z,9.50
2023-10-09T01:08:44.636Z,9.27
2023-10-09T01:11:11.250Z,9.60
2023-10-09T01:13:47.668Z,8.40
2023-10-09T01:16:17.043Z,9.13
2023-10-09T01:18:51.696Z,9.07
2023-10-09T01:21:19.381Z,8.90
2023-10-09T01:24:05.846Z,9.00
2023-10-09T01:26:45.959Z,8.77
2023-10-09T01:29:19.968Z,8.60
2023-10-09T01:31:56.372Z,8.30
2023-10-09T01:34:40.053Z,9.80
2023-10-09T01:37:13.217Z,8.10
2023-10-09T01:39:43.618Z,7.63
2023-10-09T01:42:10.990Z,8.60
2023-10-09T01:44:44.153Z,7.53
2023-10-09T01:47:15.102Z,7.90
2023-10-09T01:49:45.190Z,7.90
2023-10-09T01:52:16.733Z,8.17
2023-10-09T01:54:49.960Z,9.13
2023-10-09T01:57:23.265Z,10.67
2023-10-09T01:59:51.178Z,9.53
2023-10-09T02:02:28.001Z,8.27
2023-10-09T02:05:15.868Z,9.00
2023-10-09T02:07:45.546Z,7.67
2023-10-09T02:10:27.224Z,8.63
2023-10-09T02:13:00.780Z,8.27
2023-10-09T02:15:46.893Z,8.90
2023-10-09T02:18:24.451Z,8.20
2023-10-09T02:21:00.540Z,8.33
2023-10-09T02:23:39.711Z,8.30
2023-10-09T02:26:25.603Z,7.77
2023-10-09T02:29:16.030Z,7.87
2023-10-09T02:31:45.526Z,7.63
2023-10-09T02:34:12.416Z,7.70
2023-10-09T02:36:42.480Z,8.20
2023-10-09T02:39:24.099Z,7.70
2023-10-09T02:41:51.888Z,7.87
2023-10-09T02:44:25.890Z,8.40
2023-10-09T02:46:52.909Z,7.87
2023-10-09T02:49:19.616Z,7.53
2023-10-09T02:51:49.408Z,7.00
2023-10-09T02:54:24.980Z,7.23
2023-10-09T02:57:09.000Z,7.60
2023-10-09T02:59:39.485Z,7.57
2023-10-09T03:02:05.944Z,6.90
2023-10-09T03:04:32.382Z,7.23
2023-10-09T03:06:59.609Z,7.90
2023-10-09T03:09:29.951Z,6.77
2023-10-09T03:12:03.430Z,7.43
2023-10-09T03:14:36.446Z,6.87
2023-10-09T03:17:03.169Z,7.67
2023-10-09T03:19:30.543Z,7.93
2023-10-09T03:22:00.446Z,8.00
2023-10-09T03:24:28.649Z,7.30
2023-10-09T03:26:58.148Z,7.20
2023-10-09T03:29:25.781Z,7.20
2023-10-09T03:31:52.682Z,7.00
2023-10-09T03:34:19.581Z,6.70
2023-10-09T03:36:49.186Z,6.77
2023-10-09T03:39:34.206Z,7.53
2023-10-09T03:42:00.792Z,6.83
2023-10-09T03:44:30.030Z,7.43
2023-10-09T03:46:56.554Z,6.97
2023-10-09T03:49:27.194Z,6.70
2023-10-09T03:51:54.034Z,7.03
2023-10-09T03:54:21.945Z,6.73
2023-10-09T03:56:52.350Z,6.57
2023-10-09T03:59:21.034Z,7.37
2023-10-09T04:01:52.458Z,6.40
2023-10-09T04:04:23.954Z,7.20
2023-10-09T04:06:52.591Z,7.30
2023-10-09T04:09:19.552Z,7.07
2023-10-09T04:12:11.335Z,7.03
2023-10-09T04:14:51.040Z,6.63
2023-10-09T04:17:36.518Z,6.63
2023-10-09T04:20:36.019Z,7.40
2023-10-09T04:23:07.423Z,6.87
2023-10-09T04:25:43.418Z,6.37
2023-10-09T04:28:13.130Z,7.20
2023-10-09T04:30:48.082Z,7.33
2023-10-09T04:33:41.809Z,7.00
2023-10-09T04:36:22.911Z,6.60
2023-10-09T04:39:17.307Z,7.33
2023-10-09T04:41:43.996Z,7.63
2023-10-09T04:44:21.086Z,7.80
2023-10-09T04:47:08.282Z,7.10
2023-10-09T04:49:54.914Z,7.13
2023-10-09T04:52:29.933Z,7.50
2023-10-09T04:55:12.076Z,7.23
2023-10-09T04:57:46.273Z,7.67
2023-10-09T05:00:25.798Z,7.67
2023-10-09T05:02:58.265Z,8.00
2023-10-09T05:05:42.240Z,7.80
2023-10-09T05:08:22.855Z,7.17
2023-10-09T05:11:00.861Z,8.37
2023-10-09T05:13:42.101Z,7.27
2023-10-09T05:16:20.106Z,6.70
2023-10-09T05:18:57.232Z,7.77
2023-10-09T05:21:33.847Z,7.47
2023-10-09T05:24:13.533Z,7.57
2023-10-09T05:26:50.779Z,6.93
2023-10-09T05:29:36.013Z,6.90
2023-10-09T05:32:04.936Z,7.20
2023-10-09T05:34:35.302Z,6.90
2023-10-09T05:37:25.977Z,6.43
2023-10-09T05:40:02.702Z,7.33
2023-10-09T05:42:44.053Z,7.60
2023-10-09T05:45:19.715Z,7.37
2023-10-09T05:47:54.957Z,7.10
2023-10-09T05:50:24.937Z,7.27
2023-10-09T05:52:52.159Z,7.70
2023-10-09T05:55:37.532Z,7.47
2023-10-09T05:58:10.226Z,7.47
2023-10-09T06:00:55.534Z,7.67
2023-10-09T06:03:22.336Z,7.10
2023-10-09T06:05:59.643Z,6.80
2023-10-09T06:08:48.294Z,7.53
2023-10-09T06:11:34.130Z,8.10
2023-10-09T06:14:11.121Z,7.77
2023-10-09T06:17:00.841Z,7.57
2023-10-09T06:19:28.300Z,7.23
2023-10-09T06:22:04.815Z,7.87
2023-10-09T06:24:34.680Z,7.87
2023-10-09T06:27:01.223Z,7.47
2023-10-09T06:29:37.402Z,7.10
2023-10-09T06:32:19.609Z,8.60
2023-10-09T06:34:47.612Z,8.03
2023-10-09T06:37:26.084Z,7.50
2023-10-09T06:39:57.347Z,7.30
2023-10-09T06:42:34.377Z,7.43
2023-10-09T06:45:09.735Z,8.27
2023-10-09T06:47:42.750Z,7.10
2023-10-09T06:50:25.449Z,7.30
2023-10-09T06:52:58.561Z,7.30
2023-10-09T06:55:44.166Z,8.07
2023-10-09T06:58:16.513Z,7.63
2023-10-09T07:01:15.498Z,8.60
2023-10-09T07:03:54.162Z,7.57
2023-10-09T07:06:46.599Z,7.13
2023-10-09T07:09:14.360Z,8.50
2023-10-09T07:11:45.408Z,7.50
2023-10-09T07:14:31.355Z,7.43
2023-10-09T07:17:16.844Z,7.67
2023-10-09T07:19:44.277Z,7.40
2023-10-09T07:22:22.722Z,7.97
2023-10-09T07:24:59.695Z,7.43
2023-10-09T07:27:50.999Z,7.27
2023-10-09T07:30:31.598Z,7.43
2023-10-09T07:33:17.829Z,7.03
2023-10-09T07:35:47.119Z,7.90
2023-10-09T07:38:20.301Z,8.10
2023-10-09T07:41:17.339Z,7.70
2023-10-09T07:43:46.662Z,7.50
2023-10-09T07:46:33.678Z,8.00
2023-10-09T07:49:13.241Z,7.47
2023-10-09T07:51:48.019Z,8.37
2023-10-09T07:54:32.998Z,8.90
2023-10-09T07:57:17.293Z,8.13
2023-10-09T07:59:55.643Z,8.43
2023-10-09T08:02:32.693Z,8.80
2023-10-09T08:05:19.614Z,8.17
2023-10-09T08:08:26.921Z,8.13
2023-10-09T08:11:23.230Z,8.10
2023-10-09T08:14:01.690Z,8.13
2023-10-09T08:16:37.375Z,7.73
2023-10-09T08:19:28.335Z,8.80
2023-10-09T08:22:13.562Z,8.73
2023-10-09T08:24:43.185Z,8.67
2023-10-09T08:27:28.946Z,8.50
2023-10-09T08:30:15.504Z,8.37
2023-10-09T08:35:31.985Z,7.97
2023-10-09T08:38:10.205Z,7.90
2023-10-09T08:40:40.221Z,7.77
2023-10-09T08:43:17.378Z,7.67
2023-10-09T08:46:02.018Z,10.60
2023-10-09T08:48:28.794Z,7.80
2023-10-09T08:50:56.524Z,8.33
2023-10-09T08:53:25.290Z,8.53
2023-10-09T08:55:52.342Z,7.83
2023-10-09T08:58:26.088Z,8.40
2023-10-09T09:00:53.550Z,8.77
2023-10-09T09:03:26.950Z,8.23
2023-10-09T09:06:04.764Z,8.60
2023-10-09T09:08:37.889Z,8.80
2023-10-09T09:11:12.939Z,8.83
2023-10-09T09:13:49.698Z,8.47
2023-10-09T09:16:30.842Z,7.77
2023-10-09T09:19:09.882Z,9.50
2023-10-09T09:21:40.880Z,8.00
2023-10-09T09:24:27.899Z,7.57
2023-10-09T09:27:10.857Z,6.57
2023-10-09T09:29:38.438Z,6.63
2023-10-09T09:32:21.293Z,7.40
2023-10-09T09:34:51.080Z,7.20
2023-10-09T09:37:51.360Z,10.73
2023-10-09T09:40:35.768Z,7.40
2023-10-09T09:43:07.095Z,8.00
2023-10-09T09:45:35.908Z,7.20
2023-10-09T09:48:07.194Z,7.27
2023-10-09T09:50:34.443Z,7.73
2023-10-09T09:53:00.843Z,7.20
2023-10-09T09:55:35.306Z,6.87
2023-10-09T09:58:07.309Z,7.37
2023-10-09T10:00:42.313Z,6.07
2023-10-09T10:03:23.933Z,6.03
2023-10-09T10:05:52.591Z,5.90
2023-10-09T10:08:21.636Z,5.87
2023-10-09T10:10:54.961Z,5.83
2023-10-09T10:13:41.318Z,6.57
2023-10-09T10:16:14.158Z,6.03
2023-10-09T10:19:00.748Z,6.27
2023-10-09T10:21:39.873Z,5.97
2023-10-09T10:24:32.243Z,5.73
2023-10-09T10:27:10.723Z,5.67
2023-10-09T10:29:39.504Z,5.23
2023-10-09T10:32:10.089Z,5.63
2023-10-09T10:34:58.624Z,5.27
2023-10-09T10:37:45.435Z,5.97
2023-10-09T10:40:25.414Z,5.77
2023-10-09T10:43:10.416Z,4.97
2023-10-09T10:45:44.469Z,5.53
2023-10-09T10:48:24.127Z,5.20
2023-10-09T10:50:58.427Z,5.10
2023-10-09T10:53:30.435Z,5.37
2023-10-09T10:56:13.920Z,5.00
2023-10-09T10:59:12.801Z,4.67
2023-10-09T11:01:55.139Z,4.50
2023-10-09T11:04:39.848Z,4.87
2023-10-09T11:07:25.921Z,4.80
2023-10-09T11:10:08.145Z,4.70
2023-10-09T11:12:53.395Z,5.17
2023-10-09T11:15:45.444Z,5.03
2023-10-09T11:18:29.247Z,4.70
2023-10-09T11:21:04.202Z,4.80
2023-10-09T11:23:40.648Z,4.87
2023-10-09T11:26:26.793Z,4.20
2023-10-09T11:29:17.585Z,4.73
2023-10-09T11:32:07.111Z,5.63
2023-10-09T11:34:35.998Z,5.00
2023-10-09T11:37:05.384Z,4.40
2023-10-09T11:39:35.519Z,4.40
2023-10-09T11:42:06.500Z,4.67
2023-10-09T11:44:36.626Z,4.50
2023-10-09T11:47:23.750Z,4.43
2023-10-09T11:50:13.225Z,4.60
2023-10-09T11:53:15.450Z,5.00
2023-10-09T11:55:42.174Z,4.43
2023-10-09T11:58:09.972Z,5.57
2023-10-09T12:00:46.724Z,4.33
2023-10-09T12:03:14.229Z,4.87
2023-10-09T12:05:44.925Z,4.97
2023-10-09T12:08:15.255Z,4.73
2023-10-09T12:10:42.105Z,4.63
2023-10-09T12:13:08.661Z,4.90
2023-10-09T12:15:38.597Z,5.47
2023-10-09T12:18:12.449Z,6.00
2023-10-09T12:20:40.251Z,7.07
2023-10-09T12:23:07.150Z,7.17
2023-10-09T12:25:36.087Z,6.80
2023-10-09T12:28:03.883Z,6.90
2023-10-09T12:30:31.319Z,6.37
2023-10-09T12:32:58.995Z,5.67
2023-10-09T12:35:26.545Z,5.37
2023-10-09T12:37:55.653Z,9.10
2023-10-09T12:40:30.368Z,5.73
2023-10-09T12:42:59.968Z,5.33
2023-10-09T12:45:27.316Z,5.33
2023-10-09T12:48:00.325Z,6.23
2023-10-09T12:50:29.864Z,5.37
2023-10-09T12:53:03.731Z,5.60
2023-10-09T12:55:33.177Z,5.80
2023-10-09T12:58:07.388Z,5.50
2023-10-09T13:00:38.589Z,5.70
2023-10-09T13:03:17.903Z,5.57
2023-10-09T13:05:59.215Z,5.60
2023-10-09T13:08:36.008Z,5.73
2023-10-09T13:11:12.695Z,5.67
2023-10-09T13:13:41.512Z,5.30
2023-10-09T13:16:25.938Z,5.40
2023-10-09T13:19:00.751Z,5.27
2023-10-09T13:21:32.786Z,5.93
2023-10-09T13:24:01.280Z,6.17
2023-10-09T13:26:36.997Z,5.60
2023-10-09T13:29:04.579Z,6.03
2023-10-09T13:31:34.928Z,5.93
2023-10-09T13:34:02.277Z,5.53
2023-10-09T13:36:32.317Z,5.83
2023-10-09T13:39:19.917Z,5.67
2023-10-09T13:41:58.789Z,5.43
2023-10-09T13:44:29.482Z,5.37
2023-10-09T13:46:57.480Z,6.13
2023-10-09T13:49:24.268Z,5.80
2023-10-09T13:51:57.586Z,5.70
2023-10-09T13:54:33.306Z,6.60
2023-10-09T13:57:05.672Z,6.10
2023-10-09T13:59:33.691Z,6.70
2023-10-09T14:02:00.711Z,6.30
2023-10-09T14:04:27.376Z,6.23
2023-10-09T14:06:58.090Z,5.70
2023-10-09T14:09:46.141Z,6.63
2023-10-09T14:12:15.177Z,6.17
2023-10-09T14:14:50.200Z,6.90
2023-10-09T14:17:29.258Z,6.40
2023-10-09T14:20:17.757Z,6.50
2023-10-09T14:22:46.386Z,6.90
2023-10-09T14:25:16.241Z,6.33
2023-10-09T14:27:42.837Z,6.50
2023-10-09T14:30:19.841Z,6.13
2023-10-09T14:32:52.437Z,6.67
2023-10-09T14:35:22.594Z,6.22
2023-10-09T14:37:49.025Z,6.40
2023-10-09T14:40:21.807Z,6.03
2023-10-09T14:42:48.669Z,6.17
2023-10-09T14:45:17.992Z,6.33
2023-10-09T14:47:44.616Z,7.93
2023-10-09T14:50:14.565Z,6.93
2023-10-09T14:52:41.594Z,6.47
2023-10-09T14:55:09.186Z,6.27
2023-10-09T14:57:35.530Z,7.10
2023-10-09T15:00:08.679Z,6.57
2023-10-09T15:02:35.253Z,6.30
2023-10-09T15:05:01.834Z,6.10
2023-10-09T15:07:40.264Z,5.80
2023-10-09T15:10:10.393Z,6.20
2023-10-09T15:12:43.756Z,6.07
2023-10-09T15:15:16.772Z,6.47
2023-10-09T15:17:45.195Z,6.07
2023-10-09T15:20:16.239Z,6.33
2023-10-09T15:22:43.389Z,6.63
2023-10-09T15:25:10.709Z,6.13
2023-10-09T15:27:40.073Z,6.33
2023-10-09T15:30:09.232Z,6.07
2023-10-09T15:32:36.192Z,6.67
2023-10-09T15:35:03.661Z,6.00
2023-10-09T15:37:30.397Z,6.23
2023-10-09T15:39:56.776Z,6.32
2023-10-09T15:42:23.481Z,6.03
2023-10-09T15:44:55.758Z,6.40
2023-10-09T15:47:22.715Z,6.30
2023-10-09T15:49:49.152Z,6.57
2023-10-09T15:52:17.328Z,6.03
2023-10-09T15:54:44.280Z,6.33
2023-10-09T15:57:13.658Z,6.73
2023-10-09T15:59:40.734Z,5.80
2023-10-09T16:02:07.257Z,6.27
2023-10-09T16:04:34.965Z,6.43
2023-10-09T16:07:02.526Z,5.97
2023-10-09T16:09:30.744Z,5.33
2023-10-09T16:11:57.254Z,6.43
2023-10-09T16:14:24.390Z,6.00
2023-10-09T16:16:51.567Z,6.10
2023-10-09T16:19:18.651Z,5.60
2023-10-09T16:21:45.217Z,6.07
2023-10-09T16:24:11.784Z,6.03
2023-10-09T16:26:40.802Z,9.20
2023-10-09T16:29:11.068Z,6.90
2023-10-09T16:31:41.113Z,6.50
2023-10-09T16:34:08.570Z,6.80
2023-10-09T16:36:36.369Z,6.90
2023-10-09T16:39:03.898Z,5.73
2023-10-09T16:41:35.935Z,6.53
2023-10-09T16:44:06.463Z,7.10
2023-10-09T16:46:32.961Z,6.23
2023-10-09T16:49:02.614Z,7.27
2023-10-09T16:51:29.054Z,6.40
2023-10-09T16:53:56.887Z,6.30
2023-10-09T16:56:23.989Z,7.00
2023-10-09T16:58:53.363Z,6.97
2023-10-09T17:01:22.922Z,7.37
2023-10-09T17:03:59.279Z,7.53
2023-10-09T17:06:29.672Z,7.43
2023-10-09T17:08:56.554Z,6.17
2023-10-09T17:11:24.103Z,7.20
2023-10-09T17:13:51.000Z,6.67
2023-10-09T17:16:20.155Z,6.60
2023-10-09T17:18:47.599Z,7.13
2023-10-09T17:21:14.949Z,6.83
2023-10-09T17:23:43.290Z,6.40
2023-10-09T17:26:11.507Z,6.67
2023-10-09T17:28:39.081Z,6.40
2023-10-09T17:31:05.556Z,6.70
2023-10-09T17:33:32.209Z,6.57
2023-10-09T17:36:02.232Z,7.17
2023-10-09T17:38:31.203Z,6.43
2023-10-09T17:40:59.326Z,6.53
2023-10-09T17:43:26.467Z,6.60
2023-10-09T17:45:56.372Z,6.77
2023-10-09T17:48:23.889Z,6.13
2023-10-09T17:50:51.093Z,6.33
2023-10-09T17:53:18.969Z,6.63
2023-10-09T17:55:47.617Z,6.93
2023-10-09T17:58:14.743Z,7.07
2023-10-09T18:00:43.102Z,7.43
2023-10-09T18:03:16.297Z,6.70
2023-10-09T18:05:43.375Z,7.20
2023-10-09T18:08:15.594Z,6.67
2023-10-09T18:10:44.652Z,6.70
2023-10-09T18:13:17.890Z,6.50
2023-10-09T18:15:45.209Z,6.60
2023-10-09T18:18:13.680Z,7.17
2023-10-09T18:20:43.807Z,6.60
2023-10-09T18:23:10.604Z,6.73
2023-10-09T18:25:38.704Z,7.00
2023-10-09T18:28:05.679Z,7.37
2023-10-09T18:30:32.946Z,7.63
2023-10-09T18:33:00.861Z,7.63
2023-10-09T18:35:31.701Z,7.00
2023-10-09T18:38:00.454Z,7.47
2023-10-09T18:40:32.627Z,7.50
2023-10-09T18:43:05.043Z,8.63
2023-10-09T18:45:35.019Z,8.20
2023-10-09T18:48:02.238Z,7.20
2023-10-09T18:50:30.657Z,7.57
2023-10-09T18:52:57.144Z,7.43
2023-10-09T18:55:23.651Z,7.43
2023-10-09T18:57:50.316Z,7.50
2023-10-09T19:00:21.351Z,6.67
2023-10-09T19:02:51.862Z,7.23
2023-10-09T19:05:20.301Z,7.30
2023-10-09T19:07:48.154Z,8.03
2023-10-09T19:10:21.742Z,6.90
2023-10-09T19:12:53.573Z,7.10
2023-10-09T19:15:20.055Z,7.37
2023-10-09T19:17:46.667Z,7.67
2023-10-09T19:20:13.378Z,6.97
2023-10-09T19:22:40.707Z,7.57
2023-10-09T19:25:27.737Z,7.97
2023-10-09T19:27:58.134Z,7.50
2023-10-09T19:30:25.140Z,7.50
2023-10-09T19:32:51.705Z,7.80
2023-10-09T19:35:19.277Z,7.90
2023-10-09T19:37:48.924Z,8.30
2023-10-09T19:40:15.512Z,8.03
2023-10-09T19:42:42.073Z,7.97
2023-10-09T19:45:11.285Z,7.60
2023-10-09T19:47:41.081Z,8.47
2023-10-09T19:50:15.067Z,8.53
2023-10-09T19:52:46.578Z,8.50
2023-10-09T19:55:13.790Z,8.07
2023-10-09T19:57:40.527Z,8.07
2023-10-09T20:00:11.612Z,8.40
2023-10-09T20:02:39.887Z,7.90
2023-10-09T20:05:07.264Z,8.70
2023-10-09T20:07:34.012Z,8.43
2023-10-09T20:10:02.462Z,8.30
2023-10-09T20:12:30.857Z,9.03
2023-10-09T20:14:58.015Z,8.03
2023-10-09T20:17:25.332Z,8.53
2023-10-09T20:19:54.065Z,8.57
2023-10-09T20:22:24.097Z,7.83
2023-10-09T20:24:50.611Z,8.70
2023-10-09T20:27:18.324Z,8.57
2023-10-09T20:29:44.936Z,8.10
2023-10-09T20:32:17.317Z,8.17
2023-10-09T20:34:45.201Z,8.23
2023-10-09T20:37:13.554Z,7.93
2023-10-09T20:39:41.785Z,7.70
2023-10-09T20:42:08.296Z,7.23
2023-10-09T20:44:36.527Z,7.30
2023-10-09T20:47:04.228Z,7.60
2023-10-09T20:49:32.979Z,7.43
2023-10-09T20:51:59.640Z,6.97
2023-10-09T20:54:26.411Z,8.03
2023-10-09T20:56:52.918Z,8.10
2023-10-09T20:59:19.742Z,8.27
2023-10-09T21:01:46.602Z,8.70
2023-10-09T21:04:13.761Z,7.47
2023-10-09T21:06:41.197Z,7.90
2023-10-09T21:09:08.432Z,8.00
2023-10-09T21:11:35.057Z,7.83
2023-10-09T21:14:01.518Z,7.80
2023-10-09T21:16:28.029Z,7.70
2023-10-09T21:18:56.949Z,8.00
2023-10-09T21:21:24.622Z,8.00
2023-10-09T21:23:51.080Z,7.80
2023-10-09T21:26:19.462Z,7.37
2023-10-09T21:28:51.314Z,7.83
2023-10-09T21:31:19.301Z,8.07
2023-10-09T21:33:48.878Z,7.97
2023-10-09T21:36:15.627Z,8.57
2023-10-09T21:38:42.438Z,7.87
2023-10-09T21:41:13.339Z,8.27
2023-10-09T21:43:44.255Z,8.57
2023-10-09T21:46:11.159Z,8.17
2023-10-09T21:48:38.938Z,8.67
2023-10-09T21:51:09.261Z,8.00
2023-10-09T21:53:36.465Z,9.67
2023-10-09T21:56:12.523Z,8.33
2023-10-09T21:58:39.018Z,8.97
2023-10-09T22:01:09.046Z,9.20
2023-10-09T22:03:37.234Z,8.80
2023-10-09T22:06:05.669Z,8.10
2023-10-09T22:08:34.401Z,8.37
2023-10-09T22:11:02.970Z,8.10
2023-10-09T22:13:29.591Z,8.60
2023-10-09T22:15:56.049Z,8.33
2023-10-09T22:18:22.855Z,8.07
2023-10-09T22:20:50.487Z,8.27
2023-10-09T22:23:20.223Z,8.17
2023-10-09T22:25:57.307Z,7.40
2023-10-09T22:28:24.971Z,8.17
2023-10-09T22:30:54.213Z,7.70
2023-10-09T22:33:24.809Z,7.57
2023-10-09T22:35:54.189Z,8.87
2023-10-09T22:38:24.148Z,8.43
2023-10-09T22:40:52.548Z,8.37
2023-10-09T22:43:24.948Z,8.43
2023-10-09T22:45:53.926Z,8.90
2023-10-09T22:48:27.405Z,8.73
2023-10-09T22:51:09.798Z,8.83
2023-10-09T22:53:39.806Z,8.50
2023-10-09T22:56:17.322Z,8.73
2023-10-09T22:58:52.933Z,8.23
2023-10-09T23:01:24.398Z,8.20
2023-10-09T23:04:10.852Z,8.23
2023-10-09T23:06:41.866Z,8.47
2023-10-09T23:09:18.284Z,7.53
2023-10-09T23:11:55.179Z,8.27
2023-10-09T23:14:26.776Z,8.07
2023-10-09T23:17:06.198Z,7.80
2023-10-09T23:19:33.549Z,7.87
2023-10-09T23:22:13.944Z,8.23
2023-10-09T23:24:51.473Z,8.27
2023-10-09T23:27:44.199Z,9.03
2023-10-09T23:30:25.757Z,9.10
2023-10-09T23:32:53.576Z,8.07
2023-10-09T23:35:26.477Z,8.17
2023-10-09T23:38:11.522Z,8.17
2023-10-09T23:40:41.844Z,8.07
2023-10-09T23:43:14.364Z,7.83
2023-10-09T23:45:42.056Z,8.27
2023-10-09T23:48:15.919Z,7.80
2023-10-09T23:50:45.226Z,8.07
2023-10-09T23:53:16.013Z,7.73
2023-10-09T23:55:44.172Z,8.77
2023-10-09T23:58:19.821Z,8.60
